sensor_id;sensor_type;location;lat;lon;timestamp;pressure;altitude;pressure_sealevel;temperature;humidity
74163;BME280;62515;52.758;5.076;2023-02-03T00:02:26;102359.69;;;8.42;100.00
74163;BME280;62515;52.758;5.076;2023-02-03T00:04:54;102358.06;;;8.38;100.00
74163;BME280;62515;52.758;5.076;2023-02-03T00:07:21;102378.94;;;8.47;100.00
74163;BME280;62515;52.758;5.076;2023-02-03T00:09:48;102379.63;;;8.52;100.00
74163;BME280;62515;52.758;5.076;2023-02-03T00:12:14;102368.72;;;8.60;100.00
74163;BME280;62515;52.758;5.076;2023-02-03T00:14:41;102357.09;;;8.62;100.00
74163;BME280;62515;52.758;5.076;2023-02-03T00:17:08;102369.59;;;8.60;100.00
74163;BME280;62515;52.758;5.076;2023-02-03T00:19:34;102371.06;;;8.67;100.00
74163;BME280;62515;52.758;5.076;2023-02-03T00:22:03;102379.72;;;8.72;100.00
74163;BME280;62515;52.758;5.076;2023-02-03T00:24:29;102382.44;;;8.71;100.00
74163;BME280;62515;52.758;5.076;2023-02-03T00:26:56;102373.84;;;8.64;100.00
74163;BME280;62515;52.758;5.076;2023-02-03T00:29:23;102380.63;;;8.71;100.00
74163;BME280;62515;52.758;5.076;2023-02-03T00:31:50;102375.44;;;8.68;100.00
74163;BME280;62515;52.758;5.076;2023-02-03T00:34:17;102385.25;;;8.66;100.00
74163;BME280;62515;52.758;5.076;2023-02-03T00:36:44;102375.50;;;8.67;100.00
74163;BME280;62515;52.758;5.076;2023-02-03T00:39:13;102361.38;;;8.66;100.00
74163;BME280;62515;52.758;5.076;2023-02-03T00:41:39;102354.53;;;8.61;100.00
74163;BME280;62515;52.758;5.076;2023-02-03T00:44:06;102364.91;;;8.67;100.00
74163;BME280;62515;52.758;5.076;2023-02-03T00:46:33;102368.41;;;8.67;100.00
74163;BME280;62515;52.758;5.076;2023-02-03T00:49:01;102365.81;;;8.66;100.00
74163;BME280;62515;52.758;5.076;2023-02-03T00:51:27;102367.84;;;8.59;100.00
74163;BME280;62515;52.758;5.076;2023-02-03T00:53:54;102359.88;;;8.59;100.00
74163;BME280;62515;52.758;5.076;2023-02-03T00:56:22;102339.47;;;8.61;100.00
74163;BME280;62515;52.758;5.076;2023-02-03T00:58:49;102346.63;;;8.59;100.00
74163;BME280;62515;52.758;5.076;2023-02-03T01:01:16;102338.78;;;8.56;100.00
74163;BME280;62515;52.758;5.076;2023-02-03T01:03:43;102322.94;;;8.55;100.00
74163;BME280;62515;52.758;5.076;2023-02-03T01:06:12;102344.78;;;8.61;100.00
74163;BME280;62515;52.758;5.076;2023-02-03T01:08:40;102338.53;;;8.62;100.00
74163;BME280;62515;52.758;5.076;2023-02-03T01:11:08;102339.34;;;8.64;100.00
74163;BME280;62515;52.758;5.076;2023-02-03T01:13:37;102326.94;;;8.65;100.00
74163;BME280;62515;52.758;5.076;2023-02-03T01:16:07;102319.03;;;8.63;100.00
74163;BME280;62515;52.758;5.076;2023-02-03T01:18:34;102317.38;;;8.61;100.00
74163;BME280;62515;52.758;5.076;2023-02-03T01:21:06;102319.00;;;8.65;100.00
74163;BME280;62515;52.758;5.076;2023-02-03T01:23:33;102307.50;;;8.64;100.00
74163;BME280;62515;52.758;5.076;2023-02-03T01:26:02;102316.50;;;8.60;100.00
74163;BME280;62515;52.758;5.076;2023-02-03T01:28:29;102346.50;;;8.62;100.00
74163;BME280;62515;52.758;5.076;2023-02-03T01:30:57;102329.69;;;8.62;100.00
74163;BME280;62515;52.758;5.076;2023-02-03T01:33:24;102319.94;;;8.62;100.00
74163;BME280;62515;52.758;5.076;2023-02-03T01:35:51;102309.59;;;8.56;100.00
74163;BME280;62515;52.758;5.076;2023-02-03T01:38:17;102330.94;;;8.75;100.00
74163;BME280;62515;52.758;5.076;2023-02-03T01:40:44;102334.78;;;8.68;100.00
74163;BME280;62515;52.758;5.076;2023-02-03T01:43:27;102331.31;;;8.66;100.00
74163;BME280;62515;52.758;5.076;2023-02-03T01:45:54;102314.59;;;8.64;100.00
74163;BME280;62515;52.758;5.076;2023-02-03T01:48:23;102314.53;;;8.65;100.00
74163;BME280;62515;52.758;5.076;2023-02-03T01:50:49;102310.28;;;8.61;100.00
74163;BME280;62515;52.758;5.076;2023-02-03T01:53:16;102308.56;;;8.60;100.00
74163;BME280;62515;52.758;5.076;2023-02-03T01:55:46;102315.34;;;8.67;100.00
74163;BME280;62515;52.758;5.076;2023-02-03T01:58:17;102289.19;;;8.58;100.00
74163;BME280;62515;52.758;5.076;2023-02-03T02:00:46;102300.59;;;8.60;100.00
74163;BME280;62515;52.758;5.076;2023-02-03T02:03:16;102298.84;;;8.59;100.00
74163;BME280;62515;52.758;5.076;2023-02-03T02:05:49;102304.25;;;8.58;100.00
74163;BME280;62515;52.758;5.076;2023-02-03T02:08:18;102301.09;;;8.48;100.00
74163;BME280;62515;52.758;5.076;2023-02-03T02:10:45;102321.94;;;8.57;100.00
74163;BME280;62515;52.758;5.076;2023-02-03T02:13:13;102326.88;;;8.66;100.00
74163;BME280;62515;52.758;5.076;2023-02-03T02:15:50;102304.16;;;8.59;100.00
74163;BME280;62515;52.758;5.076;2023-02-03T02:18:35;102308.84;;;8.53;100.00
74163;BME280;62515;52.758;5.076;2023-02-03T02:21:26;102295.41;;;8.57;100.00
74163;BME280;62515;52.758;5.076;2023-02-03T02:27:04;102302.91;;;8.46;100.00
74163;BME280;62515;52.758;5.076;2023-02-03T02:29:57;102296.75;;;8.46;100.00
74163;BME280;62515;52.758;5.076;2023-02-03T02:32:41;102300.09;;;8.51;100.00
74163;BME280;62515;52.758;5.076;2023-02-03T02:35:18;102298.19;;;8.54;100.00
74163;BME280;62515;52.758;5.076;2023-02-03T02:37:54;102288.00;;;8.44;100.00
74163;BME280;62515;52.758;5.076;2023-02-03T02:40:31;102292.06;;;8.52;100.00
74163;BME280;62515;52.758;5.076;2023-02-03T02:43:05;102289.47;;;8.51;100.00
74163;BME280;62515;52.758;5.076;2023-02-03T02:45:47;102287.69;;;8.51;100.00
74163;BME280;62515;52.758;5.076;2023-02-03T02:48:21;102281.22;;;8.58;100.00
74163;BME280;62515;52.758;5.076;2023-02-03T02:50:51;102298.94;;;8.58;100.00
74163;BME280;62515;52.758;5.076;2023-02-03T02:53:20;102299.09;;;8.53;100.00
74163;BME280;62515;52.758;5.076;2023-02-03T02:55:51;102295.44;;;8.56;100.00
74163;BME280;62515;52.758;5.076;2023-02-03T02:58:20;102300.88;;;8.53;100.00
74163;BME280;62515;52.758;5.076;2023-02-03T03:00:49;102302.75;;;8.51;100.00
74163;BME280;62515;52.758;5.076;2023-02-03T03:03:19;102283.31;;;8.50;100.00
74163;BME280;62515;52.758;5.076;2023-02-03T03:05:50;102277.34;;;8.45;100.00
74163;BME280;62515;52.758;5.076;2023-02-03T03:08:26;102280.19;;;8.39;100.00
74163;BME280;62515;52.758;5.076;2023-02-03T03:10:57;102287.38;;;8.37;100.00
74163;BME280;62515;52.758;5.076;2023-02-03T03:13:34;102288.13;;;8.40;100.00
74163;BME280;62515;52.758;5.076;2023-02-03T03:16:05;102274.81;;;8.42;100.00
74163;BME280;62515;52.758;5.076;2023-02-03T03:18:38;102261.53;;;8.42;100.00
74163;BME280;62515;52.758;5.076;2023-02-03T03:21:07;102249.06;;;8.44;100.00
74163;BME280;62515;52.758;5.076;2023-02-03T03:23:39;102254.38;;;8.44;100.00
74163;BME280;62515;52.758;5.076;2023-02-03T03:26:11;102249.13;;;8.43;100.00
74163;BME280;62515;52.758;5.076;2023-02-03T03:28:45;102261.28;;;8.48;100.00
74163;BME280;62515;52.758;5.076;2023-02-03T03:31:14;102277.38;;;8.44;100.00
74163;BME280;62515;52.758;5.076;2023-02-03T03:33:43;102276.50;;;8.43;100.00
74163;BME280;62515;52.758;5.076;2023-02-03T03:36:17;102278.28;;;8.43;100.00
74163;BME280;62515;52.758;5.076;2023-02-03T03:38:51;102287.63;;;8.53;100.00
74163;BME280;62515;52.758;5.076;2023-02-03T03:41:31;102288.47;;;8.53;100.00
74163;BME280;62515;52.758;5.076;2023-02-03T03:44:02;102298.09;;;8.56;100.00
74163;BME280;62515;52.758;5.076;2023-02-03T03:46:34;102298.97;;;8.56;100.00
74163;BME280;62515;52.758;5.076;2023-02-03T03:49:08;102289.53;;;8.49;100.00
74163;BME280;62515;52.758;5.076;2023-02-03T03:51:39;102262.75;;;8.55;100.00
74163;BME280;62515;52.758;5.076;2023-02-03T03:54:10;102285.84;;;8.53;100.00
74163;BME280;62515;52.758;5.076;2023-02-03T03:56:45;102292.13;;;8.51;100.00
74163;BME280;62515;52.758;5.076;2023-02-03T03:59:15;102285.16;;;8.48;100.00
74163;BME280;62515;52.758;5.076;2023-02-03T04:01:46;102287.81;;;8.48;100.00
74163;BME280;62515;52.758;5.076;2023-02-03T04:04:15;102277.38;;;8.44;100.00
74163;BME280;62515;52.758;5.076;2023-02-03T04:06:42;102267.75;;;8.41;100.00
74163;BME280;62515;52.758;5.076;2023-02-03T04:09:09;102269.59;;;8.39;100.00
74163;BME280;62515;52.758;5.076;2023-02-03T04:11:35;102274.06;;;8.38;100.00
74163;BME280;62515;52.758;5.076;2023-02-03T04:14:02;102281.28;;;8.35;100.00
74163;BME280;62515;52.758;5.076;2023-02-03T04:16:29;102278.50;;;8.38;100.00
74163;BME280;62515;52.758;5.076;2023-02-03T04:18:56;102267.88;;;8.38;100.00
74163;BME280;62515;52.758;5.076;2023-02-03T04:21:25;102274.28;;;8.32;100.00
74163;BME280;62515;52.758;5.076;2023-02-03T04:23:51;102275.25;;;8.30;100.00
74163;BME280;62515;52.758;5.076;2023-02-03T04:26:18;102282.34;;;8.29;100.00
74163;BME280;62515;52.758;5.076;2023-02-03T04:28:45;102279.78;;;8.26;100.00
74163;BME280;62515;52.758;5.076;2023-02-03T04:31:11;102286.75;;;8.30;100.00
74163;BME280;62515;52.758;5.076;2023-02-03T04:33:38;102291.19;;;8.30;100.00
74163;BME280;62515;52.758;5.076;2023-02-03T04:36:06;102287.63;;;8.31;100.00
74163;BME280;62515;52.758;5.076;2023-02-03T04:38:34;102292.78;;;8.34;100.00
74163;BME280;62515;52.758;5.076;2023-02-03T04:41:01;102289.22;;;8.35;100.00
74163;BME280;62515;52.758;5.076;2023-02-03T04:43:28;102273.44;;;8.32;100.00
74163;BME280;62515;52.758;5.076;2023-02-03T04:45:59;102265.47;;;8.32;100.00
74163;BME280;62515;52.758;5.076;2023-02-03T04:48:25;102288.41;;;8.33;100.00
74163;BME280;62515;52.758;5.076;2023-02-03T04:50:53;102283.56;;;8.44;100.00
74163;BME280;62515;52.758;5.076;2023-02-03T04:53:19;102294.22;;;8.43;100.00
74163;BME280;62515;52.758;5.076;2023-02-03T04:55:48;102294.03;;;8.47;100.00
74163;BME280;62515;52.758;5.076;2023-02-03T04:58:14;102288.06;;;8.42;100.00
74163;BME280;62515;52.758;5.076;2023-02-03T05:00:41;102294.09;;;8.46;100.00
74163;BME280;62515;52.758;5.076;2023-02-03T05:03:08;102289.72;;;8.45;100.00
74163;BME280;62515;52.758;5.076;2023-02-03T05:05:35;102285.16;;;8.48;100.00
74163;BME280;62515;52.758;5.076;2023-02-03T05:08:01;102291.56;;;8.43;100.00
74163;BME280;62515;52.758;5.076;2023-02-03T05:10:28;102291.56;;;8.43;100.00
74163;BME280;62515;52.758;5.076;2023-02-03T05:12:57;102281.06;;;8.39;100.00
74163;BME280;62515;52.758;5.076;2023-02-03T05:15:24;102286.22;;;8.44;100.00
74163;BME280;62515;52.758;5.076;2023-02-03T05:17:51;102295.16;;;8.42;100.00
74163;BME280;62515;52.758;5.076;2023-02-03T05:20:18;102284.47;;;8.43;100.00
74163;BME280;62515;52.758;5.076;2023-02-03T05:22:44;102291.75;;;8.38;100.00
74163;BME280;62515;52.758;5.076;2023-02-03T05:25:11;102278.75;;;8.32;100.00
74163;BME280;62515;52.758;5.076;2023-02-03T05:27:38;102295.50;;;8.32;100.00
74163;BME280;62515;52.758;5.076;2023-02-03T05:30:09;102299.84;;;8.35;100.00
74163;BME280;62515;52.758;5.076;2023-02-03T05:32:36;102298.09;;;8.34;100.00
74163;BME280;62515;52.758;5.076;2023-02-03T05:35:03;102291.88;;;8.35;100.00
74163;BME280;62515;52.758;5.076;2023-02-03T05:37:30;102286.50;;;8.36;100.00
74163;BME280;62515;52.758;5.076;2023-02-03T05:39:57;102294.47;;;8.36;100.00
74163;BME280;62515;52.758;5.076;2023-02-03T05:42:25;102320.00;;;8.39;100.00
74163;BME280;62515;52.758;5.076;2023-02-03T05:44:55;102303.66;;;8.28;100.00
74163;BME280;62515;52.758;5.076;2023-02-03T05:47:23;102294.97;;;8.23;100.00
74163;BME280;62515;52.758;5.076;2023-02-03T05:49:50;102289.03;;;8.16;100.00
74163;BME280;62515;52.758;5.076;2023-02-03T05:52:16;102303.91;;;8.20;100.00
74163;BME280;62515;52.758;5.076;2023-02-03T05:54:43;102305.56;;;8.23;100.00
74163;BME280;62515;52.758;5.076;2023-02-03T05:57:10;102309.69;;;8.31;100.00
74163;BME280;62515;52.758;5.076;2023-02-03T05:59:37;102312.16;;;8.36;100.00
74163;BME280;62515;52.758;5.076;2023-02-03T06:02:03;102298.22;;;8.31;100.00
74163;BME280;62515;52.758;5.076;2023-02-03T06:04:31;102325.88;;;8.47;100.00
74163;BME280;62515;52.758;5.076;2023-02-03T06:06:58;102313.41;;;8.49;100.00
74163;BME280;62515;52.758;5.076;2023-02-03T06:09:25;102303.75;;;8.48;100.00
74163;BME280;62515;52.758;5.076;2023-02-03T06:11:51;102309.59;;;8.56;100.00
74163;BME280;62515;52.758;5.076;2023-02-03T06:14:19;102307.56;;;8.41;100.00
74163;BME280;62515;52.758;5.076;2023-02-03T06:16:45;102293.47;;;8.39;100.00
74163;BME280;62515;52.758;5.076;2023-02-03T06:19:12;102297.22;;;8.33;100.00
74163;BME280;62515;52.758;5.076;2023-02-03T06:21:43;102299.72;;;8.38;100.00
74163;BME280;62515;52.758;5.076;2023-02-03T06:24:09;102300.59;;;8.38;100.00
74163;BME280;62515;52.758;5.076;2023-02-03T06:26:36;102302.25;;;8.41;100.00
74163;BME280;62515;52.758;5.076;2023-02-03T06:29:03;102306.69;;;8.40;100.00
74163;BME280;62515;52.758;5.076;2023-02-03T06:31:29;102313.91;;;8.37;100.00
74163;BME280;62515;52.758;5.076;2023-02-03T06:33:58;102310.50;;;8.33;100.00
74163;BME280;62515;52.758;5.076;2023-02-03T06:39:48;102304.88;;;8.18;100.00
74163;BME280;62515;52.758;5.076;2023-02-03T06:42:37;102304.66;;;8.24;100.00
74163;BME280;62515;52.758;5.076;2023-02-03T06:45:49;102299.09;;;8.31;100.00
74163;BME280;62515;52.758;5.076;2023-02-03T06:48:19;102303.41;;;8.34;100.00
74163;BME280;62515;52.758;5.076;2023-02-03T06:50:50;102290.88;;;8.37;100.00
74163;BME280;62515;52.758;5.076;2023-02-03T06:53:17;102296.19;;;8.37;100.00
74163;BME280;62515;52.758;5.076;2023-02-03T06:56:01;102288.06;;;8.42;100.00
74163;BME280;62515;52.758;5.076;2023-02-03T06:58:42;102289.91;;;8.40;100.00
74163;BME280;62515;52.758;5.076;2023-02-03T07:01:13;102310.94;;;8.45;100.00
74163;BME280;62515;52.758;5.076;2023-02-03T07:03:55;102300.34;;;8.45;100.00
74163;BME280;62515;52.758;5.076;2023-02-03T07:06:23;102299.47;;;8.66;100.00
74163;BME280;62515;52.758;5.076;2023-02-03T07:09:00;102298.72;;;8.62;100.00
74163;BME280;62515;52.758;5.076;2023-02-03T07:17:58;102312.19;;;8.58;100.00
74163;BME280;62515;52.758;5.076;2023-02-03T07:20:41;102307.75;;;8.58;100.00
74163;BME280;62515;52.758;5.076;2023-02-03T07:23:08;102319.69;;;8.68;100.00
74163;BME280;62515;52.758;5.076;2023-02-03T07:25:35;102314.28;;;8.71;100.00
74163;BME280;62515;52.758;5.076;2023-02-03T07:28:01;102324.31;;;8.65;100.00
74163;BME280;62515;52.758;5.076;2023-02-03T07:30:28;102336.06;;;8.58;100.00
74163;BME280;62515;52.758;5.076;2023-02-03T07:32:57;102346.06;;;8.51;100.00
74163;BME280;62515;52.758;5.076;2023-02-03T07:35:24;102340.56;;;8.56;100.00
74163;BME280;62515;52.758;5.076;2023-02-03T07:37:50;102344.19;;;8.53;100.00
74163;BME280;62515;52.758;5.076;2023-02-03T07:40:17;102351.91;;;8.59;100.00
74163;BME280;62515;52.758;5.076;2023-02-03T07:42:45;102359.09;;;8.57;100.00
74163;BME280;62515;52.758;5.076;2023-02-03T07:45:14;102373.28;;;8.56;100.00
74163;BME280;62515;52.758;5.076;2023-02-03T07:47:42;102366.81;;;8.63;100.00
74163;BME280;62515;52.758;5.076;2023-02-03T07:50:11;102361.63;;;8.60;100.00
74163;BME280;62515;52.758;5.076;2023-02-03T07:52:38;102368.78;;;8.58;100.00
74163;BME280;62515;52.758;5.076;2023-02-03T07:55:06;102384.63;;;8.60;100.00
74163;BME280;62515;52.758;5.076;2023-02-03T07:57:33;102394.13;;;8.65;100.00
74163;BME280;62515;52.758;5.076;2023-02-03T07:59:59;102379.94;;;8.66;100.00
74163;BME280;62515;52.758;5.076;2023-02-03T08:02:26;102390.66;;;8.65;100.00
74163;BME280;62515;52.758;5.076;2023-02-03T08:04:53;102394.25;;;8.62;100.00
74163;BME280;62515;52.758;5.076;2023-02-03T08:07:21;102384.38;;;8.66;100.00
74163;BME280;62515;52.758;5.076;2023-02-03T08:09:48;102393.19;;;8.68;100.00
74163;BME280;62515;52.758;5.076;2023-02-03T08:12:14;102404.75;;;8.65;100.00
74163;BME280;62515;52.758;5.076;2023-02-03T08:14:41;102405.81;;;8.61;100.00
74163;BME280;62515;52.758;5.076;2023-02-03T08:17:08;102409.94;;;8.68;100.00
74163;BME280;62515;52.758;5.076;2023-02-03T08:19:35;102407.06;;;8.74;100.00
74163;BME280;62515;52.758;5.076;2023-02-03T08:22:01;102415.59;;;8.82;100.00
74163;BME280;62515;52.758;5.076;2023-02-03T08:24:30;102430.66;;;8.82;100.00
74163;BME280;62515;52.758;5.076;2023-02-03T08:26:59;102423.00;;;8.74;100.00
74163;BME280;62515;52.758;5.076;2023-02-03T08:29:25;102425.22;;;8.85;100.00
74163;BME280;62515;52.758;5.076;2023-02-03T08:31:52;102440.06;;;8.90;100.00
74163;BME280;62515;52.758;5.076;2023-02-03T08:34:19;102413.19;;;8.76;100.00
74163;BME280;62515;52.758;5.076;2023-02-03T08:36:46;102428.75;;;8.85;100.00
74163;BME280;62515;52.758;5.076;2023-02-03T08:39:12;102441.13;;;8.85;100.00
74163;BME280;62515;52.758;5.076;2023-02-03T08:41:41;102453.44;;;8.87;100.00
74163;BME280;62515;52.758;5.076;2023-02-03T08:44:07;102448.03;;;8.90;100.00
74163;BME280;62515;52.758;5.076;2023-02-03T08:46:35;102442.63;;;8.92;100.00
74163;BME280;62515;52.758;5.076;2023-02-03T08:49:02;102451.34;;;8.96;100.00
74163;BME280;62515;52.758;5.076;2023-02-03T08:51:28;102461.72;;;9.02;100.00
74163;BME280;62515;52.758;5.076;2023-02-03T08:53:55;102461.72;;;9.02;100.00
74163;BME280;62515;52.758;5.076;2023-02-03T08:56:22;102456.41;;;9.02;100.00
74163;BME280;62515;52.758;5.076;2023-02-03T08:58:50;102445.66;;;9.05;100.00
74163;BME280;62515;52.758;5.076;2023-02-03T09:01:18;102458.94;;;9.05;100.00
74163;BME280;62515;52.758;5.076;2023-02-03T09:03:45;102455.28;;;9.07;100.00
74163;BME280;62515;52.758;5.076;2023-02-03T09:06:12;102449.97;;;9.07;100.00
74163;BME280;62515;52.758;5.076;2023-02-03T09:08:40;102447.84;;;9.17;100.00
74163;BME280;62515;52.758;5.076;2023-02-03T09:11:11;102462.72;;;9.21;100.00
74163;BME280;62515;52.758;5.076;2023-02-03T09:13:39;102468.00;;;9.22;100.00
74163;BME280;62515;52.758;5.076;2023-02-03T09:16:08;102472.31;;;9.25;100.00
74163;BME280;62515;52.758;5.076;2023-02-03T09:18:35;102473.91;;;9.29;100.00
74163;BME280;62515;52.758;5.076;2023-02-03T09:21:04;102463.41;;;9.26;100.00
74163;BME280;62515;52.758;5.076;2023-02-03T09:23:32;102476.69;;;9.26;100.00
74163;BME280;62515;52.758;5.076;2023-02-03T09:26:01;102456.94;;;9.33;100.00
74163;BME280;62515;52.758;5.076;2023-02-03T09:28:33;102476.19;;;9.38;100.00
74163;BME280;62515;52.758;5.076;2023-02-03T09:31:24;102477.25;;;9.34;100.00
74163;BME280;62515;52.758;5.076;2023-02-03T09:33:55;102471.25;;;9.29;100.00
74163;BME280;62515;52.758;5.076;2023-02-03T09:36:24;102455.50;;;9.24;100.00
74163;BME280;62515;52.758;5.076;2023-02-03T09:38:53;102479.09;;;9.32;100.00
74163;BME280;62515;52.758;5.076;2023-02-03T09:41:35;102479.91;;;9.34;100.00
74163;BME280;62515;52.758;5.076;2023-02-03T09:44:12;102479.16;;;9.30;100.00
74163;BME280;62515;52.758;5.076;2023-02-03T09:47:02;102480.94;;;9.30;100.00
74163;BME280;62515;52.758;5.076;2023-02-03T09:49:42;102478.19;;;9.33;100.00
74163;BME280;62515;52.758;5.076;2023-02-03T09:52:26;102490.41;;;9.37;100.00
74163;BME280;62515;52.758;5.076;2023-02-03T09:54:58;102499.50;;;9.31;100.00
74163;BME280;62515;52.758;5.076;2023-02-03T09:57:36;102513.66;;;9.32;100.00
74163;BME280;62515;52.758;5.076;2023-02-03T10:00:14;102517.09;;;9.34;100.00
74163;BME280;62515;52.758;5.076;2023-02-03T10:02:53;102502.72;;;9.39;100.00
74163;BME280;62515;52.758;5.076;2023-02-03T10:05:24;102536.44;;;9.37;100.00
74163;BME280;62515;52.758;5.076;2023-02-03T10:08:02;102541.94;;;9.33;100.00
74163;BME280;62515;52.758;5.076;2023-02-03T10:10:38;102538.34;;;9.34;100.00
74163;BME280;62515;52.758;5.076;2023-02-03T10:13:21;102551.59;;;9.35;100.00
74163;BME280;62515;52.758;5.076;2023-02-03T10:18:44;102527.47;;;9.40;100.00
74163;BME280;62515;52.758;5.076;2023-02-03T10:21:18;102541.63;;;9.40;100.00
74163;BME280;62515;52.758;5.076;2023-02-03T10:23:53;102542.63;;;9.38;100.00
74163;BME280;62515;52.758;5.076;2023-02-03T10:26:30;102549.84;;;9.34;100.00
74163;BME280;62515;52.758;5.076;2023-02-03T10:29:02;102543.75;;;9.32;100.00
74163;BME280;62515;52.758;5.076;2023-02-03T10:31:33;102563.22;;;9.33;100.00
74163;BME280;62515;52.758;5.076;2023-02-03T10:34:09;102564.13;;;9.32;100.00
74163;BME280;62515;52.758;5.076;2023-02-03T10:36:52;102565.78;;;9.34;100.00
74163;BME280;62515;52.758;5.076;2023-02-03T10:39:26;102557.66;;;9.39;100.00
74163;BME280;62515;52.758;5.076;2023-02-03T10:41:55;102578.72;;;9.43;100.00
74163;BME280;62515;52.758;5.076;2023-02-03T10:44:30;102570.69;;;9.45;100.00
74163;BME280;62515;52.758;5.076;2023-02-03T10:46:59;102582.97;;;9.48;100.00
74163;BME280;62515;52.758;5.076;2023-02-03T10:49:28;102587.31;;;9.50;100.00
74163;BME280;62515;52.758;5.076;2023-02-03T10:51:59;102570.09;;;9.37;100.00
74163;BME280;62515;52.758;5.076;2023-02-03T10:54:29;102565.41;;;9.43;100.00
74163;BME280;62515;52.758;5.076;2023-02-03T10:57:02;102587.53;;;9.44;100.00
74163;BME280;62515;52.758;5.076;2023-02-03T10:59:30;102580.56;;;9.41;100.00
74163;BME280;62515;52.758;5.076;2023-02-03T11:01:59;102578.91;;;9.39;100.00
74163;BME280;62515;52.758;5.076;2023-02-03T11:04:31;102599.28;;;9.38;100.00
74163;BME280;62515;52.758;5.076;2023-02-03T11:07:01;102590.69;;;9.32;100.00
74163;BME280;62515;52.758;5.076;2023-02-03T11:09:32;102594.97;;;9.36;100.00
74163;BME280;62515;52.758;5.076;2023-02-03T11:12:11;102610.09;;;9.34;100.00
74163;BME280;62515;52.758;5.076;2023-02-03T11:14:40;102616.38;;;9.31;100.00
74163;BME280;62515;52.758;5.076;2023-02-03T11:17:16;102611.13;;;9.30;100.00
74163;BME280;62515;52.758;5.076;2023-02-03T11:19:47;102605.13;;;9.25;100.00
74163;BME280;62515;52.758;5.076;2023-02-03T11:22:27;102618.19;;;9.31;100.00
74163;BME280;62515;52.758;5.076;2023-02-03T11:24:55;102614.84;;;9.26;100.00
74163;BME280;62515;52.758;5.076;2023-02-03T11:27:23;102616.50;;;9.28;100.00
74163;BME280;62515;52.758;5.076;2023-02-03T11:30:06;102629.84;;;9.27;100.00
74163;BME280;62515;52.758;5.076;2023-02-03T11:32:41;102630.78;;;9.26;100.00
74163;BME280;62515;52.758;5.076;2023-02-03T11:35:17;102642.31;;;9.25;100.00
74163;BME280;62515;52.758;5.076;2023-02-03T11:37:48;102625.63;;;9.21;100.00
74163;BME280;62515;52.758;5.076;2023-02-03T11:40:27;102640.66;;;9.22;100.00
74163;BME280;62515;52.758;5.076;2023-02-03T11:43:04;102632.72;;;9.21;100.00
74163;BME280;62515;52.758;5.076;2023-02-03T11:45:43;102645.09;;;9.22;100.00
74163;BME280;62515;52.758;5.076;2023-02-03T11:48:25;102656.47;;;9.25;100.00
74163;BME280;62515;52.758;5.076;2023-02-03T11:50:59;102644.97;;;9.25;100.00
74163;BME280;62515;52.758;5.076;2023-02-03T11:53:38;102659.28;;;9.21;100.00
74163;BME280;62515;52.758;5.076;2023-02-03T11:56:31;102662.19;;;9.15;100.00
74163;BME280;62515;52.758;5.076;2023-02-03T11:59:30;102650.63;;;9.16;100.00
74163;BME280;62515;52.758;5.076;2023-02-03T12:02:16;102654.91;;;9.20;100.00
74163;BME280;62515;52.758;5.076;2023-02-03T12:05:13;102659.41;;;9.18;100.00
74163;BME280;62515;52.758;5.076;2023-02-03T12:07:54;102651.50;;;9.16;100.00
74163;BME280;62515;52.758;5.076;2023-02-03T12:10:33;102660.41;;;9.15;100.00
74163;BME280;62515;52.758;5.076;2023-02-03T12:13:17;102663.28;;;9.09;100.00
74163;BME280;62515;52.758;5.076;2023-02-03T12:16:00;102654.44;;;9.09;100.00
74163;BME280;62515;52.758;5.076;2023-02-03T12:18:43;102660.50;;;9.12;100.00
74163;BME280;62515;52.758;5.076;2023-02-03T12:21:32;102662.41;;;9.09;100.00
74163;BME280;62515;52.758;5.076;2023-02-03T12:24:13;102678.44;;;9.06;100.00
74163;BME280;62515;52.758;5.076;2023-02-03T12:26:51;102674.00;;;9.06;100.00
74163;BME280;62515;52.758;5.076;2023-02-03T12:29:21;102681.22;;;9.03;100.00
74163;BME280;62515;52.758;5.076;2023-02-03T12:31:57;102682.84;;;9.07;100.00
74163;BME280;62515;52.758;5.076;2023-02-03T12:34:32;102692.59;;;9.06;100.00
74163;BME280;62515;52.758;5.076;2023-02-03T12:37:04;102700.50;;;9.08;100.00
74163;BME280;62515;52.758;5.076;2023-02-03T12:39:38;102703.03;;;9.11;100.00
74163;BME280;62515;52.758;5.076;2023-02-03T12:42:13;102702.13;;;9.12;100.00
74163;BME280;62515;52.758;5.076;2023-02-03T12:44:46;102710.22;;;9.09;100.00
74163;BME280;62515;52.758;5.076;2023-02-03T12:47:19;102710.31;;;9.06;100.00
74163;BME280;62515;52.758;5.076;2023-02-03T12:49:52;102716.06;;;8.93;100.00
74163;BME280;62515;52.758;5.076;2023-02-03T12:52:24;102706.22;;;8.97;100.00
74163;BME280;62515;52.758;5.076;2023-02-03T12:55:02;102724.81;;;8.97;100.00
74163;BME280;62515;52.758;5.076;2023-02-03T12:57:37;102739.03;;;8.94;100.00
74163;BME280;62515;52.758;5.076;2023-02-03T13:00:19;102731.03;;;8.96;100.00
74163;BME280;62515;52.758;5.076;2023-02-03T13:03:06;102735.56;;;8.92;100.00
74163;BME280;62515;52.758;5.076;2023-02-03T13:05:41;102735.53;;;8.94;100.00
74163;BME280;62515;52.758;5.076;2023-02-03T13:08:17;102734.66;;;8.93;100.00
74163;BME280;62515;52.758;5.076;2023-02-03T13:10:52;102744.66;;;8.85;100.00
74163;BME280;62515;52.758;5.076;2023-02-03T13:13:28;102738.56;;;8.83;100.00
74163;BME280;62515;52.758;5.076;2023-02-03T13:15:59;102734.28;;;8.78;100.00
74163;BME280;62515;52.758;5.076;2023-02-03T13:18:30;102738.75;;;8.77;100.00
74163;BME280;62515;52.758;5.076;2023-02-03T13:21:01;102740.53;;;8.77;100.00
74163;BME280;62515;52.758;5.076;2023-02-03T13:23:28;102745.78;;;8.78;100.00
74163;BME280;62515;52.758;5.076;2023-02-03T13:26:20;102736.91;;;8.79;100.00
74163;BME280;62515;52.758;5.076;2023-02-03T13:29:02;102728.94;;;8.79;100.00